Flight Track Log - Related Links

Times and Time Zones

All times are in EDT time to prevent confusion due to time zone crossing. See the UCA846 flight status page for this flight to view local times or setup timezone preferences in your user account.

Time Position Orientation Groundspeed Altitude Reporting Facility
EDT Latitude Longitude Course Direction KTS MPH feet Rate Location/Type
Tue 12:10:21 PM 40.7167 -74.1333 339° North 159 183 1,700  Level New York TRACON
Tue 12:11:21 PM 40.7500 -74.1500 339° North 177 204 3,300 1,579 Climbing New York TRACON
Tue 12:12:15 PM 40.7833 -74.2000 311° West 176 203 4,700 1,421 Climbing New York TRACON
Tue 12:13:15 PM 40.8167 -74.2500 311° West 177 204 6,000 1,350 Climbing New York TRACON
Tue 12:14:15 PM 40.8500 -74.3000 311° West 179 206 7,400 1,300 Climbing New York TRACON
Tue 12:15:15 PM 40.8833 -74.3500 311° West 187 215 8,600 1,211 Climbing New York TRACON
Tue 12:16:09 PM 40.9167 -74.3833 323° Northwest 190 219 9,700 894 Climbing New York TRACON
Tue 12:16:49 PM 40.9406 -74.4244 308° West 191 220 10,000 178 Climbing New York Center
Tue 12:17:50 PM 40.9803 -74.4817 313° West 226 260 10,000  Level New York Center
Tue 12:18:51 PM 41.0244 -74.5417 314° West 230 265 10,000 51 Level New York Center
Tue 12:19:48 PM 41.0722 -74.6050 315° West 237 273 10,100 712 Climbing New York Center
Tue 12:20:49 PM 41.1100 -74.6594 313° West 229 264 11,400 942 Climbing New York Center
Tue 12:21:49 PM 41.1478 -74.7167 311° West 207 238 12,000 300 Climbing New York Center
Tue 12:22:49 PM 41.1767 -74.7844 300° West 215 247 12,000  Level New York Center
Tue 12:23:50 PM 41.2094 -74.8636 299° West 228 262 12,000  Level New York Center
Tue 12:24:50 PM 41.2442 -74.9375 302° West 237 273 12,000  Level New York Center
Tue 12:25:51 PM 41.2769 -75.0142 300° West 237 273 12,000  Level New York Center
Tue 12:26:48 PM 41.3078 -75.0850 300° West 237 273 12,000  Level New York Center
Tue 12:27:48 PM 41.3442 -75.1703 300° West 237 273 12,000  Level New York Center
Tue 12:28:49 PM 41.3769 -75.2444 301° West 237 273 12,000  Level New York Center
Tue 12:29:48 PM 41.4092 -75.3239 298° West 242 278 12,000  Level New York Center
Tue 12:30:48 PM 41.4397 -75.3953 300° West 242 278 12,000  Level New York Center
Tue 12:31:48 PM 41.4722 -75.4722 299° West 242 278 12,000  Level New York Center
Tue 12:32:48 PM 41.5061 -75.5578 298° West 242 278 12,000  Level New York Center
Tue 12:33:49 PM 41.5383 -75.6375 298° West 248 285 12,000  Level New York Center
Tue 12:34:50 PM 41.5725 -75.7178 300° West 248 285 12,000  Level New York Center
Tue 12:35:48 PM 41.6025 -75.7947 298° West 243 280 12,000  Level New York Center
Tue 12:36:50 PM 41.6328 -75.8692 299° West 249 287 12,000  Level New York Center
Tue 12:37:50 PM 41.6667 -75.9497 299° West 249 287 12,000  Level New York Center
Tue 12:38:48 PM 41.7006 -76.0328 299° West 244 281 12,000  Level New York Center
Tue 12:39:48 PM 41.7306 -76.1103 297° West 244 281 12,000  Level New York Center
Tue 12:40:49 PM 41.7622 -76.1906 298° West 249 287 12,000  Level New York Center
Tue 12:41:49 PM 41.7922 -76.2625 299° West 249 287 12,000  Level New York Center
Tue 12:42:50 PM 41.8219 -76.3375 298° West 244 281 12,000  Level New York Center
Tue 12:43:48 PM 41.8536 -76.4208 297° West 249 287 12,000  Level New York Center
Tue 12:44:49 PM 41.8853 -76.4986 299° West 249 287 12,000  Level New York Center
Tue 12:45:48 PM 41.9189 -76.5769 300° West 249 287 12,000  Level New York Center
Tue 12:46:48 PM 41.9483 -76.6575 296° West 249 287 12,000  Level New York Center
Tue 12:49:11 PM 42.0225 -76.8394 299° West 242 278 12,000  Level Cleveland Center
Tue 12:50:13 PM 42.0597 -76.9336 298° West 240 276 12,000  Level Cleveland Center
Tue 12:51:15 PM 42.0908 -77.0133 298° West 240 276 12,000  Level Cleveland Center
Tue 12:52:17 PM 42.1192 -77.0967 295° West 246 283 12,000  Level Cleveland Center
Tue 12:53:19 PM 42.1458 -77.1792 294° West 241 277 12,000  Level Cleveland Center
Tue 12:54:21 PM 42.1733 -77.2619 294° West 240 276 12,000  Level Cleveland Center
Tue 12:55:23 PM 42.2008 -77.3447 294° West 242 278 12,000  Level Cleveland Center
Tue 12:56:25 PM 42.2336 -77.4444 294° West 242 278 12,000 48 Level Cleveland Center
Tue 12:57:28 PM 42.2608 -77.5281 294° West 243 280 12,100 48 Climbing Cleveland Center
Tue 12:58:29 PM 42.2883 -77.6128 294° West 244 281 12,100 -240 Level Cleveland Center
Tue 12:59:33 PM 42.3156 -77.6975 294° West 245 282 11,600 -524 Descending Cleveland Center
Tue 01:00:35 PM 42.3444 -77.7892 293° West 260 299 11,000 -581 Descending Cleveland Center
Tue 01:01:37 PM 42.3731 -77.8764 294° West 255 293 10,400 -968 Descending Cleveland Center
Tue 01:02:39 PM 42.4072 -77.9833 293° West 257 296 9,000 -1,210 Descending Cleveland Center
Tue 01:03:41 PM 42.4372 -78.0744 294° West 263 303 7,900 -1,065 Descending Cleveland Center
Tue 01:04:43 PM 42.4656 -78.1675 292° West 266 306 6,800 -919 Descending Cleveland Center
Tue 01:05:45 PM 42.4953 -78.2581 294° West 264 304 6,000 -435 Descending Cleveland Center
Tue 01:06:47 PM 42.5339 -78.3325 305° West 256 295 5,900 -435 Descending Cleveland Center
Tue 01:07:49 PM 42.5983 -78.3644 340° North 248 285 5,100 -435 Descending Cleveland Center
Tue 01:08:51 PM 42.6611 -78.4033 336° Northwest 249 287 5,000 -145 Descending Cleveland Center
Tue 01:09:53 PM 42.7331 -78.4461 336° Northwest 244 281 4,800 -341 Descending Cleveland Center
Tue 01:10:54 PM 42.7975 -78.4844 336° Northwest 243 280 4,300 -390 Descending Cleveland Center
Tue 01:11:56 PM 42.8617 -78.5256 335° Northwest 244 281 4,000 -387 Descending Cleveland Center
Tue 01:12:58 PM 42.9206 -78.5767 328° Northwest 240 276 3,500 -629 Descending Cleveland Center
Tue 01:14:00 PM 42.9556 -78.6278 313° West 197 227 2,700 -772 Descending Cleveland Center
Tue 01:14:39 PM 42.9667 -78.6500 304° West 140 161 2,200 -909 Descending Buffalo TRACON
Tue 01:15:39 PM 42.9667 -78.7000 270° West 118 136 1,200 -1,000 Descending Buffalo TRACON
Tue 01:18:00 PM 42.9333 -78.7167 334° Northwest  Level FlightAware Approximate

Login

Don't have an account? Register now (free) for customized features, flight alerts, and more!